sensor_id;sensor_type;location;lat;lon;timestamp;P1;durP1;ratioP1;P2;durP2;ratioP2
8230;SDS011;4156;50.908;6.974;2023-02-28T00:01:07;6.97;;;2.60;;
8230;SDS011;4156;50.908;6.974;2023-02-28T00:03:32;4.37;;;2.60;;
8230;SDS011;4156;50.908;6.974;2023-02-28T00:06:00;2.83;;;2.43;;
8230;SDS011;4156;50.908;6.974;2023-02-28T00:08:29;2.97;;;2.43;;
8230;SDS011;4156;50.908;6.974;2023-02-28T00:10:55;3.33;;;2.40;;
8230;SDS011;4156;50.908;6.974;2023-02-28T00:13:20;6.10;;;2.50;;
8230;SDS011;4156;50.908;6.974;2023-02-28T00:15:46;5.17;;;2.40;;
8230;SDS011;4156;50.908;6.974;2023-02-28T00:18:11;4.30;;;2.67;;
8230;SDS011;4156;50.908;6.974;2023-02-28T00:20:38;4.13;;;3.10;;
8230;SDS011;4156;50.908;6.974;2023-02-28T00:23:03;4.20;;;2.63;;
8230;SDS011;4156;50.908;6.974;2023-02-28T00:25:29;4.07;;;2.47;;
8230;SDS011;4156;50.908;6.974;2023-02-28T00:27:55;3.40;;;2.43;;
8230;SDS011;4156;50.908;6.974;2023-02-28T00:30:21;2.40;;;2.20;;
8230;SDS011;4156;50.908;6.974;2023-02-28T00:32:48;3.07;;;2.40;;
8230;SDS011;4156;50.908;6.974;2023-02-28T00:35:15;3.77;;;2.30;;
8230;SDS011;4156;50.908;6.974;2023-02-28T00:37:41;2.47;;;2.20;;
8230;SDS011;4156;50.908;6.974;2023-02-28T00:40:07;3.40;;;2.30;;
8230;SDS011;4156;50.908;6.974;2023-02-28T00:42:34;3.10;;;2.30;;
8230;SDS011;4156;50.908;6.974;2023-02-28T00:45:00;4.03;;;2.50;;
8230;SDS011;4156;50.908;6.974;2023-02-28T00:47:26;4.47;;;2.50;;
8230;SDS011;4156;50.908;6.974;2023-02-28T00:49:51;3.57;;;2.23;;
8230;SDS011;4156;50.908;6.974;2023-02-28T00:52:17;3.83;;;2.30;;
8230;SDS011;4156;50.908;6.974;2023-02-28T00:54:43;4.80;;;2.93;;
8230;SDS011;4156;50.908;6.974;2023-02-28T00:57:08;4.73;;;2.57;;
8230;SDS011;4156;50.908;6.974;2023-02-28T00:59:34;3.63;;;2.27;;
8230;SDS011;4156;50.908;6.974;2023-02-28T01:01:59;3.43;;;2.40;;
8230;SDS011;4156;50.908;6.974;2023-02-28T01:04:25;4.03;;;2.27;;
8230;SDS011;4156;50.908;6.974;2023-02-28T01:06:50;3.17;;;2.20;;
8230;SDS011;4156;50.908;6.974;2023-02-28T01:09:16;4.20;;;2.40;;
8230;SDS011;4156;50.908;6.974;2023-02-28T01:11:42;3.10;;;2.10;;
8230;SDS011;4156;50.908;6.974;2023-02-28T01:14:09;3.33;;;2.30;;
8230;SDS011;4156;50.908;6.974;2023-02-28T01:16:39;2.30;;;2.10;;
8230;SDS011;4156;50.908;6.974;2023-02-28T01:19:04;3.17;;;2.13;;
8230;SDS011;4156;50.908;6.974;2023-02-28T01:21:30;4.80;;;2.20;;
8230;SDS011;4156;50.908;6.974;2023-02-28T01:23:56;5.53;;;2.30;;
8230;SDS011;4156;50.908;6.974;2023-02-28T01:26:22;5.50;;;2.50;;
8230;SDS011;4156;50.908;6.974;2023-02-28T01:28:49;3.97;;;2.27;;
8230;SDS011;4156;50.908;6.974;2023-02-28T01:31:16;6.07;;;2.30;;
8230;SDS011;4156;50.908;6.974;2023-02-28T01:33:43;2.50;;;2.10;;
8230;SDS011;4156;50.908;6.974;2023-02-28T01:36:10;4.03;;;2.23;;
8230;SDS011;4156;50.908;6.974;2023-02-28T01:38:38;3.03;;;2.00;;
8230;SDS011;4156;50.908;6.974;2023-02-28T01:41:04;3.13;;;2.50;;
8230;SDS011;4156;50.908;6.974;2023-02-28T01:43:32;2.30;;;2.10;;
8230;SDS011;4156;50.908;6.974;2023-02-28T01:46:17;3.07;;;2.20;;
8230;SDS011;4156;50.908;6.974;2023-02-28T01:48:44;2.63;;;1.87;;
8230;SDS011;4156;50.908;6.974;2023-02-28T01:51:22;7.10;;;2.23;;
8230;SDS011;4156;50.908;6.974;2023-02-28T01:54:12;4.07;;;2.30;;
8230;SDS011;4156;50.908;6.974;2023-02-28T01:56:44;5.90;;;2.50;;
8230;SDS011;4156;50.908;6.974;2023-02-28T01:59:14;3.73;;;2.30;;
8230;SDS011;4156;50.908;6.974;2023-02-28T02:02:11;4.17;;;2.50;;
8230;SDS011;4156;50.908;6.974;2023-02-28T02:04:39;4.33;;;2.23;;
8230;SDS011;4156;50.908;6.974;2023-02-28T02:07:12;4.07;;;2.07;;
8230;SDS011;4156;50.908;6.974;2023-02-28T02:09:38;4.00;;;2.27;;
8230;SDS011;4156;50.908;6.974;2023-02-28T02:15:01;2.80;;;2.27;;
8230;SDS011;4156;50.908;6.974;2023-02-28T02:17:40;2.53;;;2.10;;
8230;SDS011;4156;50.908;6.974;2023-02-28T02:23:02;2.83;;;2.47;;
8230;SDS011;4156;50.908;6.974;2023-02-28T02:31:36;3.03;;;2.17;;
8230;SDS011;4156;50.908;6.974;2023-02-28T02:37:15;3.23;;;2.00;;
8230;SDS011;4156;50.908;6.974;2023-02-28T02:40:11;2.23;;;1.73;;
8230;SDS011;4156;50.908;6.974;2023-02-28T02:45:23;3.33;;;2.20;;
8230;SDS011;4156;50.908;6.974;2023-02-28T02:48:00;2.50;;;1.90;;
8230;SDS011;4156;50.908;6.974;2023-02-28T02:50:31;4.50;;;2.40;;
8230;SDS011;4156;50.908;6.974;2023-02-28T02:53:02;3.70;;;2.20;;
8230;SDS011;4156;50.908;6.974;2023-02-28T02:55:29;2.87;;;2.20;;
8230;SDS011;4156;50.908;6.974;2023-02-28T02:57:59;3.37;;;2.43;;
8230;SDS011;4156;50.908;6.974;2023-02-28T03:00:41;6.27;;;2.50;;
8230;SDS011;4156;50.908;6.974;2023-02-28T03:03:12;3.73;;;1.80;;
8230;SDS011;4156;50.908;6.974;2023-02-28T03:08:13;2.93;;;1.93;;
8230;SDS011;4156;50.908;6.974;2023-02-28T03:10:43;3.13;;;2.20;;
8230;SDS011;4156;50.908;6.974;2023-02-28T03:19:15;3.00;;;2.50;;
8230;SDS011;4156;50.908;6.974;2023-02-28T03:25:17;3.63;;;2.40;;
8230;SDS011;4156;50.908;6.974;2023-02-28T03:32:54;3.67;;;2.30;;
8230;SDS011;4156;50.908;6.974;2023-02-28T03:35:26;2.47;;;2.00;;
8230;SDS011;4156;50.908;6.974;2023-02-28T03:38:00;2.20;;;2.00;;
8230;SDS011;4156;50.908;6.974;2023-02-28T03:40:39;3.80;;;2.20;;
8230;SDS011;4156;50.908;6.974;2023-02-28T03:43:12;2.53;;;1.80;;
8230;SDS011;4156;50.908;6.974;2023-02-28T03:45:40;3.60;;;2.57;;
8230;SDS011;4156;50.908;6.974;2023-02-28T03:48:11;6.53;;;2.10;;
8230;SDS011;4156;50.908;6.974;2023-02-28T03:50:43;3.50;;;2.40;;
8230;SDS011;4156;50.908;6.974;2023-02-28T03:53:16;2.77;;;2.20;;
8230;SDS011;4156;50.908;6.974;2023-02-28T03:55:48;4.13;;;2.57;;
8230;SDS011;4156;50.908;6.974;2023-02-28T03:58:25;2.90;;;2.00;;
8230;SDS011;4156;50.908;6.974;2023-02-28T04:01:18;2.43;;;2.00;;
8230;SDS011;4156;50.908;6.974;2023-02-28T04:04:06;2.67;;;2.20;;
8230;SDS011;4156;50.908;6.974;2023-02-28T04:06:33;2.50;;;2.20;;
8230;SDS011;4156;50.908;6.974;2023-02-28T04:08:59;4.17;;;2.13;;
8230;SDS011;4156;50.908;6.974;2023-02-28T04:11:35;3.00;;;2.13;;
8230;SDS011;4156;50.908;6.974;2023-02-28T04:14:07;3.00;;;2.13;;
8230;SDS011;4156;50.908;6.974;2023-02-28T04:16:34;2.50;;;2.00;;
8230;SDS011;4156;50.908;6.974;2023-02-28T04:19:04;3.57;;;1.90;;
8230;SDS011;4156;50.908;6.974;2023-02-28T04:21:32;3.43;;;2.13;;
8230;SDS011;4156;50.908;6.974;2023-02-28T04:24:06;3.30;;;2.07;;
8230;SDS011;4156;50.908;6.974;2023-02-28T04:26:39;2.37;;;2.03;;
8230;SDS011;4156;50.908;6.974;2023-02-28T04:29:06;2.13;;;1.90;;
8230;SDS011;4156;50.908;6.974;2023-02-28T04:31:32;2.83;;;2.03;;
8230;SDS011;4156;50.908;6.974;2023-02-28T04:33:58;2.70;;;2.37;;
8230;SDS011;4156;50.908;6.974;2023-02-28T04:36:24;2.87;;;2.10;;
8230;SDS011;4156;50.908;6.974;2023-02-28T04:38:50;2.47;;;2.27;;
8230;SDS011;4156;50.908;6.974;2023-02-28T04:41:16;3.67;;;2.97;;
8230;SDS011;4156;50.908;6.974;2023-02-28T04:43:42;4.00;;;2.30;;
8230;SDS011;4156;50.908;6.974;2023-02-28T04:46:08;5.50;;;2.50;;
8230;SDS011;4156;50.908;6.974;2023-02-28T04:48:35;3.20;;;2.13;;
8230;SDS011;4156;50.908;6.974;2023-02-28T04:51:05;4.90;;;2.50;;
8230;SDS011;4156;50.908;6.974;2023-02-28T04:53:33;3.60;;;2.50;;
8230;SDS011;4156;50.908;6.974;2023-02-28T04:55:59;2.83;;;2.50;;
8230;SDS011;4156;50.908;6.974;2023-02-28T04:58:24;2.80;;;2.37;;
8230;SDS011;4156;50.908;6.974;2023-02-28T05:00:50;2.50;;;2.30;;
8230;SDS011;4156;50.908;6.974;2023-02-28T05:03:16;2.77;;;2.43;;
8230;SDS011;4156;50.908;6.974;2023-02-28T05:05:42;3.07;;;2.37;;
8230;SDS011;4156;50.908;6.974;2023-02-28T05:08:07;2.53;;;2.27;;
8230;SDS011;4156;50.908;6.974;2023-02-28T05:10:34;3.10;;;2.47;;
8230;SDS011;4156;50.908;6.974;2023-02-28T05:13:00;2.93;;;2.40;;
8230;SDS011;4156;50.908;6.974;2023-02-28T05:15:26;2.60;;;2.20;;
8230;SDS011;4156;50.908;6.974;2023-02-28T05:17:51;4.80;;;2.83;;
8230;SDS011;4156;50.908;6.974;2023-02-28T05:20:17;4.57;;;2.47;;
8230;SDS011;4156;50.908;6.974;2023-02-28T05:22:43;4.33;;;2.10;;
8230;SDS011;4156;50.908;6.974;2023-02-28T05:25:12;3.50;;;2.20;;
8230;SDS011;4156;50.908;6.974;2023-02-28T05:27:40;4.30;;;2.50;;
8230;SDS011;4156;50.908;6.974;2023-02-28T05:30:06;3.93;;;2.40;;
8230;SDS011;4156;50.908;6.974;2023-02-28T05:32:35;2.23;;;2.03;;
8230;SDS011;4156;50.908;6.974;2023-02-28T05:35:07;3.17;;;2.30;;
8230;SDS011;4156;50.908;6.974;2023-02-28T05:37:34;3.00;;;2.20;;
8230;SDS011;4156;50.908;6.974;2023-02-28T05:39:59;2.43;;;2.20;;
8230;SDS011;4156;50.908;6.974;2023-02-28T05:42:26;3.40;;;2.27;;
8230;SDS011;4156;50.908;6.974;2023-02-28T05:44:51;2.50;;;1.97;;
8230;SDS011;4156;50.908;6.974;2023-02-28T05:47:17;2.63;;;2.17;;
8230;SDS011;4156;50.908;6.974;2023-02-28T05:49:42;2.77;;;2.13;;
8230;SDS011;4156;50.908;6.974;2023-02-28T05:52:08;2.47;;;2.00;;
8230;SDS011;4156;50.908;6.974;2023-02-28T05:54:33;2.47;;;2.10;;
8230;SDS011;4156;50.908;6.974;2023-02-28T05:56:59;3.20;;;2.40;;
8230;SDS011;4156;50.908;6.974;2023-02-28T05:59:24;2.30;;;2.00;;
8230;SDS011;4156;50.908;6.974;2023-02-28T06:01:50;2.13;;;1.93;;
8230;SDS011;4156;50.908;6.974;2023-02-28T06:04:18;2.30;;;2.10;;
8230;SDS011;4156;50.908;6.974;2023-02-28T06:06:45;2.50;;;2.10;;
8230;SDS011;4156;50.908;6.974;2023-02-28T06:09:12;3.00;;;2.40;;
8230;SDS011;4156;50.908;6.974;2023-02-28T06:11:38;3.90;;;2.30;;
8230;SDS011;4156;50.908;6.974;2023-02-28T06:14:03;2.07;;;1.87;;
8230;SDS011;4156;50.908;6.974;2023-02-28T06:16:30;3.13;;;2.20;;
8230;SDS011;4156;50.908;6.974;2023-02-28T06:18:57;3.00;;;2.07;;
8230;SDS011;4156;50.908;6.974;2023-02-28T06:21:24;2.70;;;2.20;;
8230;SDS011;4156;50.908;6.974;2023-02-28T06:23:50;4.87;;;2.40;;
8230;SDS011;4156;50.908;6.974;2023-02-28T06:26:16;4.80;;;2.57;;
8230;SDS011;4156;50.908;6.974;2023-02-28T06:28:42;2.93;;;2.53;;
8230;SDS011;4156;50.908;6.974;2023-02-28T06:31:11;2.60;;;2.13;;
8230;SDS011;4156;50.908;6.974;2023-02-28T06:33:38;4.63;;;2.40;;
8230;SDS011;4156;50.908;6.974;2023-02-28T06:36:06;4.30;;;2.43;;
8230;SDS011;4156;50.908;6.974;2023-02-28T06:38:32;3.87;;;2.30;;
8230;SDS011;4156;50.908;6.974;2023-02-28T06:40:59;3.53;;;2.03;;
8230;SDS011;4156;50.908;6.974;2023-02-28T06:43:25;2.80;;;2.30;;
8230;SDS011;4156;50.908;6.974;2023-02-28T06:45:59;4.13;;;2.50;;
8230;SDS011;4156;50.908;6.974;2023-02-28T06:48:26;2.37;;;2.00;;
8230;SDS011;4156;50.908;6.974;2023-02-28T06:51:00;5.17;;;2.77;;
8230;SDS011;4156;50.908;6.974;2023-02-28T06:53:30;6.23;;;2.83;;
8230;SDS011;4156;50.908;6.974;2023-02-28T06:55:55;6.43;;;2.80;;
8230;SDS011;4156;50.908;6.974;2023-02-28T06:58:21;2.73;;;2.30;;
8230;SDS011;4156;50.908;6.974;2023-02-28T07:00:50;3.20;;;2.40;;
8230;SDS011;4156;50.908;6.974;2023-02-28T07:03:16;3.93;;;2.60;;
8230;SDS011;4156;50.908;6.974;2023-02-28T07:05:43;4.53;;;2.33;;
8230;SDS011;4156;50.908;6.974;2023-02-28T07:08:08;3.50;;;2.50;;
8230;SDS011;4156;50.908;6.974;2023-02-28T07:10:34;3.83;;;2.50;;
8230;SDS011;4156;50.908;6.974;2023-02-28T07:13:03;3.13;;;2.50;;
8230;SDS011;4156;50.908;6.974;2023-02-28T07:15:29;2.63;;;2.20;;
8230;SDS011;4156;50.908;6.974;2023-02-28T07:17:55;7.90;;;3.10;;
8230;SDS011;4156;50.908;6.974;2023-02-28T07:20:21;6.53;;;2.60;;
8230;SDS011;4156;50.908;6.974;2023-02-28T07:22:47;3.10;;;2.57;;
8230;SDS011;4156;50.908;6.974;2023-02-28T07:25:20;3.57;;;2.40;;
8230;SDS011;4156;50.908;6.974;2023-02-28T07:27:46;2.53;;;2.33;;
8230;SDS011;4156;50.908;6.974;2023-02-28T07:30:11;3.13;;;2.70;;
8230;SDS011;4156;50.908;6.974;2023-02-28T07:32:37;2.33;;;2.07;;
8230;SDS011;4156;50.908;6.974;2023-02-28T07:35:03;3.60;;;2.30;;
8230;SDS011;4156;50.908;6.974;2023-02-28T07:37:28;3.03;;;2.20;;
8230;SDS011;4156;50.908;6.974;2023-02-28T07:39:56;4.47;;;2.50;;
8230;SDS011;4156;50.908;6.974;2023-02-28T07:42:22;3.00;;;2.20;;
8230;SDS011;4156;50.908;6.974;2023-02-28T07:44:47;3.63;;;2.30;;
8230;SDS011;4156;50.908;6.974;2023-02-28T07:47:13;3.17;;;2.50;;
8230;SDS011;4156;50.908;6.974;2023-02-28T07:49:38;3.77;;;2.60;;
8230;SDS011;4156;50.908;6.974;2023-02-28T07:52:05;3.20;;;2.13;;
8230;SDS011;4156;50.908;6.974;2023-02-28T07:54:32;3.00;;;2.07;;
8230;SDS011;4156;50.908;6.974;2023-02-28T07:56:58;2.53;;;2.10;;
8230;SDS011;4156;50.908;6.974;2023-02-28T07:59:24;3.90;;;2.43;;
8230;SDS011;4156;50.908;6.974;2023-02-28T08:01:49;3.90;;;2.40;;
8230;SDS011;4156;50.908;6.974;2023-02-28T08:04:17;2.23;;;2.03;;
8230;SDS011;4156;50.908;6.974;2023-02-28T08:06:43;2.67;;;1.83;;
8230;SDS011;4156;50.908;6.974;2023-02-28T08:09:09;6.33;;;2.03;;
8230;SDS011;4156;50.908;6.974;2023-02-28T08:11:34;2.67;;;2.07;;
8230;SDS011;4156;50.908;6.974;2023-02-28T08:14:01;2.20;;;1.90;;
8230;SDS011;4156;50.908;6.974;2023-02-28T08:16:26;4.00;;;1.97;;
8230;SDS011;4156;50.908;6.974;2023-02-28T08:18:52;2.23;;;2.00;;
8230;SDS011;4156;50.908;6.974;2023-02-28T08:21:18;2.40;;;2.00;;
8230;SDS011;4156;50.908;6.974;2023-02-28T08:23:46;2.27;;;2.07;;
8230;SDS011;4156;50.908;6.974;2023-02-28T08:26:16;3.17;;;2.03;;
8230;SDS011;4156;50.908;6.974;2023-02-28T08:28:43;3.03;;;2.00;;
8230;SDS011;4156;50.908;6.974;2023-02-28T08:31:09;2.20;;;1.90;;
8230;SDS011;4156;50.908;6.974;2023-02-28T08:33:36;1.90;;;1.80;;
8230;SDS011;4156;50.908;6.974;2023-02-28T08:36:04;2.40;;;1.93;;
8230;SDS011;4156;50.908;6.974;2023-02-28T08:38:30;1.70;;;1.60;;
8230;SDS011;4156;50.908;6.974;2023-02-28T08:40:57;5.53;;;1.80;;
8230;SDS011;4156;50.908;6.974;2023-02-28T08:43:27;2.57;;;1.90;;
8230;SDS011;4156;50.908;6.974;2023-02-28T08:45:53;2.77;;;2.07;;
8230;SDS011;4156;50.908;6.974;2023-02-28T08:48:21;2.87;;;2.00;;
8230;SDS011;4156;50.908;6.974;2023-02-28T08:50:57;2.57;;;2.00;;
8230;SDS011;4156;50.908;6.974;2023-02-28T08:53:24;2.90;;;2.00;;
8230;SDS011;4156;50.908;6.974;2023-02-28T08:56:03;2.33;;;1.90;;
8230;SDS011;4156;50.908;6.974;2023-02-28T08:58:30;2.57;;;1.77;;
8230;SDS011;4156;50.908;6.974;2023-02-28T09:00:56;2.30;;;1.93;;
8230;SDS011;4156;50.908;6.974;2023-02-28T09:03:21;1.60;;;1.50;;
8230;SDS011;4156;50.908;6.974;2023-02-28T09:05:57;2.07;;;1.50;;
8230;SDS011;4156;50.908;6.974;2023-02-28T09:08:25;2.70;;;1.67;;
8230;SDS011;4156;50.908;6.974;2023-02-28T09:10:52;2.10;;;1.90;;
8230;SDS011;4156;50.908;6.974;2023-02-28T09:13:19;1.90;;;1.67;;
8230;SDS011;4156;50.908;6.974;2023-02-28T09:15:44;2.73;;;1.70;;
8230;SDS011;4156;50.908;6.974;2023-02-28T09:18:10;2.80;;;1.50;;
8230;SDS011;4156;50.908;6.974;2023-02-28T09:20:39;3.47;;;2.17;;
8230;SDS011;4156;50.908;6.974;2023-02-28T09:23:06;1.80;;;1.70;;
8230;SDS011;4156;50.908;6.974;2023-02-28T09:25:33;1.93;;;1.73;;
8230;SDS011;4156;50.908;6.974;2023-02-28T09:27:59;1.73;;;1.60;;
8230;SDS011;4156;50.908;6.974;2023-02-28T09:30:25;1.80;;;1.70;;
8230;SDS011;4156;50.908;6.974;2023-02-28T09:32:50;2.90;;;1.50;;
8230;SDS011;4156;50.908;6.974;2023-02-28T09:35:17;2.30;;;1.83;;
8230;SDS011;4156;50.908;6.974;2023-02-28T09:37:44;2.13;;;1.60;;
8230;SDS011;4156;50.908;6.974;2023-02-28T09:40:10;1.80;;;1.70;;
8230;SDS011;4156;50.908;6.974;2023-02-28T09:42:37;2.00;;;1.67;;
8230;SDS011;4156;50.908;6.974;2023-02-28T09:45:05;1.93;;;1.70;;
8230;SDS011;4156;50.908;6.974;2023-02-28T09:47:41;2.43;;;1.70;;
8230;SDS011;4156;50.908;6.974;2023-02-28T09:50:17;2.13;;;1.77;;
8230;SDS011;4156;50.908;6.974;2023-02-28T09:52:54;2.30;;;1.90;;
8230;SDS011;4156;50.908;6.974;2023-02-28T09:55:33;3.03;;;1.90;;
8230;SDS011;4156;50.908;6.974;2023-02-28T09:58:21;2.23;;;1.87;;
8230;SDS011;4156;50.908;6.974;2023-02-28T10:01:01;2.67;;;1.87;;
8230;SDS011;4156;50.908;6.974;2023-02-28T10:03:55;1.70;;;1.60;;
8230;SDS011;4156;50.908;6.974;2023-02-28T10:06:26;2.03;;;1.63;;
8230;SDS011;4156;50.908;6.974;2023-02-28T10:11:25;2.07;;;1.57;;
8230;SDS011;4156;50.908;6.974;2023-02-28T10:16:29;1.73;;;1.63;;
8230;SDS011;4156;50.908;6.974;2023-02-28T10:19:16;1.70;;;1.60;;
8230;SDS011;4156;50.908;6.974;2023-02-28T10:21:54;3.07;;;2.00;;
8230;SDS011;4156;50.908;6.974;2023-02-28T10:24:50;2.27;;;1.87;;
8230;SDS011;4156;50.908;6.974;2023-02-28T10:29:45;2.73;;;1.90;;
8230;SDS011;4156;50.908;6.974;2023-02-28T10:32:14;2.57;;;1.90;;
8230;SDS011;4156;50.908;6.974;2023-02-28T10:34:42;1.70;;;1.60;;
8230;SDS011;4156;50.908;6.974;2023-02-28T10:37:08;2.30;;;1.90;;
8230;SDS011;4156;50.908;6.974;2023-02-28T10:42:18;3.27;;;2.07;;
8230;SDS011;4156;50.908;6.974;2023-02-28T10:44:44;2.17;;;1.80;;
8230;SDS011;4156;50.908;6.974;2023-02-28T10:47:18;2.60;;;1.97;;
8230;SDS011;4156;50.908;6.974;2023-02-28T10:49:48;1.97;;;1.77;;
8230;SDS011;4156;50.908;6.974;2023-02-28T10:52:15;2.23;;;2.00;;
8230;SDS011;4156;50.908;6.974;2023-02-28T10:55:22;2.73;;;1.80;;
8230;SDS011;4156;50.908;6.974;2023-02-28T10:57:50;2.00;;;1.80;;
8230;SDS011;4156;50.908;6.974;2023-02-28T11:00:21;3.30;;;2.00;;
8230;SDS011;4156;50.908;6.974;2023-02-28T11:02:48;2.03;;;1.77;;
8230;SDS011;4156;50.908;6.974;2023-02-28T11:05:27;2.83;;;2.10;;
8230;SDS011;4156;50.908;6.974;2023-02-28T11:10:36;2.97;;;2.20;;
8230;SDS011;4156;50.908;6.974;2023-02-28T11:13:02;2.40;;;2.03;;
8230;SDS011;4156;50.908;6.974;2023-02-28T11:15:29;3.93;;;1.97;;
8230;SDS011;4156;50.908;6.974;2023-02-28T11:17:58;4.43;;;1.97;;
8230;SDS011;4156;50.908;6.974;2023-02-28T11:20:28;2.67;;;2.00;;
8230;SDS011;4156;50.908;6.974;2023-02-28T11:22:56;2.23;;;2.07;;
8230;SDS011;4156;50.908;6.974;2023-02-28T11:25:28;2.20;;;2.00;;
8230;SDS011;4156;50.908;6.974;2023-02-28T11:28:01;3.23;;;2.07;;
8230;SDS011;4156;50.908;6.974;2023-02-28T11:30:38;2.40;;;2.20;;
8230;SDS011;4156;50.908;6.974;2023-02-28T11:35:52;2.70;;;2.07;;
8230;SDS011;4156;50.908;6.974;2023-02-28T11:38:20;2.47;;;1.93;;
8230;SDS011;4156;50.908;6.974;2023-02-28T11:40:53;3.27;;;2.00;;
8230;SDS011;4156;50.908;6.974;2023-02-28T11:43:28;2.30;;;1.93;;
8230;SDS011;4156;50.908;6.974;2023-02-28T11:46:24;3.73;;;2.10;;
8230;SDS011;4156;50.908;6.974;2023-02-28T11:49:49;3.03;;;1.97;;
8230;SDS011;4156;50.908;6.974;2023-02-28T11:52:06;2.17;;;1.80;;
8230;SDS011;4156;50.908;6.974;2023-02-28T11:54:54;2.63;;;2.00;;
8230;SDS011;4156;50.908;6.974;2023-02-28T11:57:56;2.30;;;1.93;;
8230;SDS011;4156;50.908;6.974;2023-02-28T12:11:12;2.20;;;2.00;;
8230;SDS011;4156;50.908;6.974;2023-02-28T12:13:47;2.30;;;2.10;;
8230;SDS011;4156;50.908;6.974;2023-02-28T12:17:06;2.03;;;1.83;;
8230;SDS011;4156;50.908;6.974;2023-02-28T12:22:15;1.90;;;1.70;;
8230;SDS011;4156;50.908;6.974;2023-02-28T12:27:33;2.50;;;1.90;;
8230;SDS011;4156;50.908;6.974;2023-02-28T12:35:33;2.70;;;2.20;;
8230;SDS011;4156;50.908;6.974;2023-02-28T12:38:08;4.90;;;2.20;;
8230;SDS011;4156;50.908;6.974;2023-02-28T12:43:32;4.37;;;2.30;;
8230;SDS011;4156;50.908;6.974;2023-02-28T12:46:10;5.90;;;2.33;;
8230;SDS011;4156;50.908;6.974;2023-02-28T12:51:05;2.57;;;2.20;;
8230;SDS011;4156;50.908;6.974;2023-02-28T12:56:21;2.80;;;2.20;;
8230;SDS011;4156;50.908;6.974;2023-02-28T12:59:00;2.80;;;2.30;;
8230;SDS011;4156;50.908;6.974;2023-02-28T13:04:14;3.43;;;2.53;;
8230;SDS011;4156;50.908;6.974;2023-02-28T13:07:15;2.90;;;2.30;;
8230;SDS011;4156;50.908;6.974;2023-02-28T13:10:04;2.40;;;2.13;;
8230;SDS011;4156;50.908;6.974;2023-02-28T13:12:32;6.97;;;2.80;;
8230;SDS011;4156;50.908;6.974;2023-02-28T13:15:12;3.33;;;2.83;;
8230;SDS011;4156;50.908;6.974;2023-02-28T13:17:49;4.10;;;2.30;;
8230;SDS011;4156;50.908;6.974;2023-02-28T13:20:18;2.87;;;2.60;;
8230;SDS011;4156;50.908;6.974;2023-02-28T13:22:56;3.03;;;2.57;;
8230;SDS011;4156;50.908;6.974;2023-02-28T13:27:48;3.93;;;2.90;;
8230;SDS011;4156;50.908;6.974;2023-02-28T13:35:46;2.80;;;2.50;;
8230;SDS011;4156;50.908;6.974;2023-02-28T13:38:16;2.30;;;2.10;;
8230;SDS011;4156;50.908;6.974;2023-02-28T13:41:21;3.70;;;2.60;;
8230;SDS011;4156;50.908;6.974;2023-02-28T13:44:01;3.30;;;2.40;;
8230;SDS011;4156;50.908;6.974;2023-02-28T13:47:27;3.00;;;2.53;;
8230;SDS011;4156;50.908;6.974;2023-02-28T13:49:26;3.20;;;2.67;;
8230;SDS011;4156;50.908;6.974;2023-02-28T14:00:02;3.17;;;2.53;;
8230;SDS011;4156;50.908;6.974;2023-02-28T14:02:52;2.73;;;2.33;;
8230;SDS011;4156;50.908;6.974;2023-02-28T14:05:38;3.00;;;2.37;;
8230;SDS011;4156;50.908;6.974;2023-02-28T14:08:16;3.77;;;2.50;;
8230;SDS011;4156;50.908;6.974;2023-02-28T14:10:46;3.27;;;2.70;;
8230;SDS011;4156;50.908;6.974;2023-02-28T14:16:01;3.23;;;2.77;;
8230;SDS011;4156;50.908;6.974;2023-02-28T14:18:32;3.40;;;2.90;;
8230;SDS011;4156;50.908;6.974;2023-02-28T14:21:19;2.47;;;2.27;;
8230;SDS011;4156;50.908;6.974;2023-02-28T14:23:55;3.97;;;2.50;;
8230;SDS011;4156;50.908;6.974;2023-02-28T14:29:55;3.40;;;2.50;;
8230;SDS011;4156;50.908;6.974;2023-02-28T14:33:00;4.60;;;2.60;;
8230;SDS011;4156;50.908;6.974;2023-02-28T14:36:01;3.20;;;2.37;;
8230;SDS011;4156;50.908;6.974;2023-02-28T14:38:50;3.30;;;2.60;;
8230;SDS011;4156;50.908;6.974;2023-02-28T14:41:29;5.13;;;2.73;;
8230;SDS011;4156;50.908;6.974;2023-02-28T14:43:56;3.23;;;2.70;;
8230;SDS011;4156;50.908;6.974;2023-02-28T14:46:25;4.10;;;2.50;;
8230;SDS011;4156;50.908;6.974;2023-02-28T14:49:00;2.97;;;2.40;;
8230;SDS011;4156;50.908;6.974;2023-02-28T14:51:25;3.07;;;2.70;;
8230;SDS011;4156;50.908;6.974;2023-02-28T14:53:52;2.80;;;2.50;;
8230;SDS011;4156;50.908;6.974;2023-02-28T14:56:24;3.30;;;2.33;;
8230;SDS011;4156;50.908;6.974;2023-02-28T14:58:57;3.63;;;3.07;;
8230;SDS011;4156;50.908;6.974;2023-02-28T15:01:24;4.37;;;2.77;;
8230;SDS011;4156;50.908;6.974;2023-02-28T15:03:58;2.87;;;2.57;;
8230;SDS011;4156;50.908;6.974;2023-02-28T15:06:29;3.60;;;2.80;;
8230;SDS011;4156;50.908;6.974;2023-02-28T15:11:39;4.07;;;2.60;;
8230;SDS011;4156;50.908;6.974;2023-02-28T15:14:05;4.67;;;2.47;;
8230;SDS011;4156;50.908;6.974;2023-02-28T15:16:32;3.27;;;2.60;;
8230;SDS011;4156;50.908;6.974;2023-02-28T15:19:03;4.17;;;3.07;;
8230;SDS011;4156;50.908;6.974;2023-02-28T15:21:39;4.37;;;3.10;;
8230;SDS011;4156;50.908;6.974;2023-02-28T15:24:14;3.50;;;2.97;;
8230;SDS011;4156;50.908;6.974;2023-02-28T15:26:59;3.10;;;2.50;;
8230;SDS011;4156;50.908;6.974;2023-02-28T15:29:28;3.20;;;2.67;;
8230;SDS011;4156;50.908;6.974;2023-02-28T15:32:00;3.17;;;2.50;;
8230;SDS011;4156;50.908;6.974;2023-02-28T15:37:00;3.47;;;2.70;;
8230;SDS011;4156;50.908;6.974;2023-02-28T15:39:27;3.33;;;2.47;;
8230;SDS011;4156;50.908;6.974;2023-02-28T15:42:16;2.87;;;2.47;;
8230;SDS011;4156;50.908;6.974;2023-02-28T15:44:44;4.03;;;2.73;;
8230;SDS011;4156;50.908;6.974;2023-02-28T15:47:23;2.43;;;2.23;;
8230;SDS011;4156;50.908;6.974;2023-02-28T15:49:55;4.47;;;2.60;;
8230;SDS011;4156;50.908;6.974;2023-02-28T15:52:40;4.00;;;2.90;;
8230;SDS011;4156;50.908;6.974;2023-02-28T15:55:09;3.20;;;2.80;;
8230;SDS011;4156;50.908;6.974;2023-02-28T15:57:48;3.73;;;2.43;;
8230;SDS011;4156;50.908;6.974;2023-02-28T16:00:18;3.47;;;2.83;;
8230;SDS011;4156;50.908;6.974;2023-02-28T16:02:46;5.23;;;2.50;;
8230;SDS011;4156;50.908;6.974;2023-02-28T16:05:29;5.23;;;2.70;;
8230;SDS011;4156;50.908;6.974;2023-02-28T16:08:00;3.00;;;2.47;;
8230;SDS011;4156;50.908;6.974;2023-02-28T16:10:36;2.70;;;2.50;;
8230;SDS011;4156;50.908;6.974;2023-02-28T16:13:02;4.77;;;2.43;;
8230;SDS011;4156;50.908;6.974;2023-02-28T16:15:28;2.97;;;2.37;;
8230;SDS011;4156;50.908;6.974;2023-02-28T16:18:00;2.53;;;2.20;;
8230;SDS011;4156;50.908;6.974;2023-02-28T16:20:26;5.30;;;2.80;;
8230;SDS011;4156;50.908;6.974;2023-02-28T16:22:54;3.43;;;2.70;;
8230;SDS011;4156;50.908;6.974;2023-02-28T16:25:22;2.63;;;2.30;;
8230;SDS011;4156;50.908;6.974;2023-02-28T16:27:52;3.10;;;2.30;;
8230;SDS011;4156;50.908;6.974;2023-02-28T16:30:20;3.50;;;3.00;;
8230;SDS011;4156;50.908;6.974;2023-02-28T16:32:47;2.97;;;2.40;;
8230;SDS011;4156;50.908;6.974;2023-02-28T16:35:13;3.30;;;2.67;;
8230;SDS011;4156;50.908;6.974;2023-02-28T16:37:39;2.60;;;2.40;;
8230;SDS011;4156;50.908;6.974;2023-02-28T16:40:06;3.13;;;2.30;;
8230;SDS011;4156;50.908;6.974;2023-02-28T16:42:34;3.43;;;2.67;;
8230;SDS011;4156;50.908;6.974;2023-02-28T16:44:59;2.93;;;2.50;;
8230;SDS011;4156;50.908;6.974;2023-02-28T16:47:25;4.10;;;2.60;;
8230;SDS011;4156;50.908;6.974;2023-02-28T16:49:51;4.33;;;2.47;;
8230;SDS011;4156;50.908;6.974;2023-02-28T16:52:17;5.40;;;2.77;;
8230;SDS011;4156;50.908;6.974;2023-02-28T16:54:43;3.40;;;3.07;;
8230;SDS011;4156;50.908;6.974;2023-02-28T16:57:21;3.10;;;2.57;;
8230;SDS011;4156;50.908;6.974;2023-02-28T16:59:48;5.47;;;2.70;;
8230;SDS011;4156;50.908;6.974;2023-02-28T17:02:15;3.43;;;2.80;;
8230;SDS011;4156;50.908;6.974;2023-02-28T17:04:44;3.53;;;2.70;;
8230;SDS011;4156;50.908;6.974;2023-02-28T17:07:13;3.33;;;2.83;;
8230;SDS011;4156;50.908;6.974;2023-02-28T17:09:40;2.77;;;2.43;;
8230;SDS011;4156;50.908;6.974;2023-02-28T17:12:06;4.97;;;3.00;;
8230;SDS011;4156;50.908;6.974;2023-02-28T17:14:32;4.10;;;3.13;;
8230;SDS011;4156;50.908;6.974;2023-02-28T17:16:58;3.90;;;2.90;;
8230;SDS011;4156;50.908;6.974;2023-02-28T17:19:23;5.77;;;3.40;;
8230;SDS011;4156;50.908;6.974;2023-02-28T17:21:49;3.67;;;2.63;;
8230;SDS011;4156;50.908;6.974;2023-02-28T17:24:15;4.47;;;3.43;;
8230;SDS011;4156;50.908;6.974;2023-02-28T17:26:41;4.27;;;3.07;;